createdAt,value
2018-06-20T00:01:50.927Z,18.79
2018-06-20T00:02:50.722Z,18.88
2018-06-20T00:05:13.521Z,18.78
2018-06-20T00:07:36.738Z,18.83
2018-06-20T00:08:36.487Z,18.79
2018-06-20T00:09:36.474Z,18.78
2018-06-20T00:10:36.467Z,18.75
2018-06-20T00:12:59.791Z,18.74
2018-06-20T00:15:22.729Z,18.71
2018-06-20T00:16:22.768Z,18.75
2018-06-20T00:18:55.800Z,18.78
2018-06-20T00:19:45.825Z,18.74
2018-06-20T00:37:18.311Z,18.68
2018-06-20T00:39:51.233Z,18.68
2018-06-20T00:42:04.306Z,18.63
2018-06-20T00:44:27.155Z,18.66
2018-06-20T00:45:27.111Z,18.61
2018-06-20T00:46:27.089Z,18.61
2018-06-20T00:47:35.762Z,18.52
2018-06-20T00:48:27.083Z,18.60
2018-06-20T00:49:27.067Z,18.48
2018-06-20T00:51:50.083Z,18.56
2018-06-20T00:54:24.135Z,18.49
2018-06-20T00:56:46.128Z,18.56
2018-06-20T00:57:44.741Z,18.56
2018-06-20T00:58:36.036Z,18.52
2018-06-20T01:00:59.077Z,18.54
2018-06-20T01:03:22.083Z,18.51
2018-06-20T01:04:22.287Z,18.49
2018-06-20T01:05:22.055Z,18.43
2018-06-20T01:06:22.016Z,18.43
2018-06-20T01:08:45.139Z,18.48
2018-06-20T01:09:44.999Z,18.45
2018-06-20T01:10:44.988Z,18.46
2018-06-20T01:13:08.213Z,18.51
2018-06-20T01:15:42.196Z,18.51
2018-06-20T01:17:55.642Z,18.54
2018-06-20T01:20:19.346Z,18.46
2018-06-20T01:21:19.053Z,18.49
2018-06-20T01:22:19.052Z,18.51
2018-06-20T01:24:42.669Z,18.52
2018-06-20T01:27:16.422Z,18.48
2018-06-20T01:28:05.049Z,18.54
2018-06-20T01:30:28.528Z,18.51
2018-06-20T01:32:51.673Z,18.52
2018-06-20T01:35:15.750Z,18.58
2018-06-20T01:36:15.143Z,18.54
2018-06-20T01:38:38.281Z,18.49
2018-06-20T01:41:01.893Z,18.52
2018-06-20T01:43:24.265Z,18.57
2018-06-20T01:45:46.457Z,18.46
2018-06-20T01:48:09.914Z,18.54
2018-06-20T01:49:09.787Z,18.56
2018-06-20T01:51:32.835Z,18.57
2018-06-20T01:53:55.921Z,18.52
2018-06-20T01:54:55.832Z,18.52
2018-06-20T01:55:57.405Z,18.48
2018-06-20T01:58:18.980Z,18.48
2018-06-20T01:59:18.981Z,18.52
2018-06-20T02:00:18.308Z,18.48
2018-06-20T02:02:42.289Z,18.63
2018-06-20T02:03:42.257Z,18.56
2018-06-20T02:06:05.296Z,18.52
2018-06-20T02:08:27.431Z,18.58
2018-06-20T02:10:50.403Z,18.58
2018-06-20T02:13:24.710Z,18.58
2018-06-20T02:15:46.497Z,18.60
2018-06-20T02:17:59.468Z,18.54
2018-06-20T02:20:22.518Z,18.49
2018-06-20T02:21:22.480Z,18.52
2018-06-20T02:23:56.923Z,18.52
2018-06-20T02:26:08.932Z,18.56
2018-06-20T02:27:08.548Z,18.49
2018-06-20T02:28:08.471Z,18.51
2018-06-20T02:30:31.602Z,18.54
2018-06-20T02:33:05.723Z,18.51
2018-06-20T02:35:18.098Z,18.58
2018-06-20T02:36:17.576Z,18.54
2018-06-20T02:38:41.116Z,18.52
2018-06-20T02:41:04.570Z,18.58
2018-06-20T02:43:27.621Z,18.48
2018-06-20T02:45:50.884Z,18.60
2018-06-20T02:46:50.674Z,18.52
2018-06-20T02:49:12.670Z,18.57
2018-06-20T02:50:21.457Z,18.51
2018-06-20T02:52:06.955Z,18.46
2018-06-20T02:54:40.105Z,18.48
2018-06-20T02:55:29.946Z,18.61
2018-06-20T02:57:53.586Z,18.57
2018-06-20T03:00:17.475Z,18.49
2018-06-20T03:02:41.093Z,18.57
2018-06-20T03:05:04.232Z,18.51
2018-06-20T03:07:27.113Z,18.46
2018-06-20T03:09:51.473Z,18.54
2018-06-20T03:12:14.684Z,18.54
2018-06-20T03:13:14.162Z,18.54
2018-06-20T03:15:37.996Z,18.51
2018-06-20T03:18:00.797Z,18.54
2018-06-20T03:20:23.226Z,18.54
2018-06-20T03:21:32.293Z,18.51
2018-06-20T03:23:47.325Z,18.60
2018-06-20T03:24:48.116Z,18.54
2018-06-20T03:25:55.889Z,18.48
2018-06-20T03:27:40.598Z,18.52
2018-06-20T03:30:03.821Z,18.49
2018-06-20T03:32:26.647Z,18.56
2018-06-20T03:34:49.675Z,18.68
2018-06-20T03:37:13.756Z,18.61
2018-06-20T03:38:13.651Z,18.68
2018-06-20T03:40:37.098Z,18.63
2018-06-20T03:43:09.904Z,18.63
2018-06-20T03:45:32.735Z,18.70
2018-06-20T03:47:45.386Z,18.63
2018-06-20T03:50:18.977Z,18.68
2018-06-20T03:52:33.254Z,18.70
2018-06-20T03:53:32.770Z,18.68
2018-06-20T03:55:56.185Z,18.75
2018-06-20T03:58:18.734Z,18.75
2018-06-20T04:00:50.854Z,18.67
2018-06-20T04:01:40.882Z,18.70
2018-06-20T04:02:40.697Z,18.67
2018-06-20T04:03:40.664Z,18.68
2018-06-20T04:04:40.705Z,18.75
2018-06-20T04:07:14.212Z,18.79
2018-06-20T04:08:04.038Z,18.75
2018-06-20T04:09:03.642Z,18.78
2018-06-20T04:11:36.827Z,18.81
2018-06-20T04:12:26.679Z,18.86
2018-06-20T04:13:26.644Z,18.83
2018-06-20T04:15:50.251Z,18.79
2018-06-20T04:18:23.823Z,18.81
2018-06-20T04:20:37.927Z,18.86
2018-06-20T04:23:01.654Z,18.89
2018-06-20T04:24:00.922Z,18.96
2018-06-20T04:25:00.870Z,18.89
2018-06-20T04:27:24.136Z,19.00
2018-06-20T04:29:46.192Z,18.96
2018-06-20T04:30:46.570Z,18.94
2018-06-20T04:33:08.465Z,19.09
2018-06-20T04:35:41.053Z,19.09
2018-06-20T04:37:54.195Z,19.15
2018-06-20T04:38:53.991Z,19.16
2018-06-20T04:39:53.935Z,19.16
2018-06-20T04:40:54.032Z,19.16
2018-06-20T04:43:17.340Z,19.16
2018-06-20T04:45:40.439Z,19.30
2018-06-20T04:46:39.934Z,19.23
2018-06-20T04:49:12.486Z,19.31
2018-06-20T04:50:03.152Z,19.34
2018-06-20T04:52:36.007Z,19.35
2018-06-20T04:54:58.632Z,19.41
2018-06-20T04:57:10.961Z,19.45
2018-06-20T04:58:10.559Z,19.41
2018-06-20T05:00:42.668Z,19.59
2018-06-20T05:02:55.900Z,19.54
2018-06-20T05:05:18.907Z,19.63
2018-06-20T05:06:18.779Z,19.75
2018-06-20T05:07:18.781Z,19.70
2018-06-20T05:09:43.150Z,19.71
2018-06-20T05:10:42.644Z,19.67
2018-06-20T05:13:05.137Z,19.74
2018-06-20T05:15:37.765Z,19.84
2018-06-20T05:16:27.896Z,19.79
2018-06-20T05:17:27.639Z,19.82
2018-06-20T05:20:00.975Z,19.87
2018-06-20T05:20:50.953Z,19.89
2018-06-20T05:21:50.630Z,19.94
2018-06-20T05:22:50.589Z,19.97
2018-06-20T05:25:24.117Z,20.07
2018-06-20T05:27:45.766Z,20.14
2018-06-20T05:29:58.796Z,20.11
2018-06-20T05:30:58.684Z,20.17
2018-06-20T05:31:58.621Z,20.12
2018-06-20T05:34:23.328Z,20.14
2018-06-20T05:36:55.848Z,20.18
2018-06-20T05:39:18.968Z,20.14
2018-06-20T05:40:09.094Z,20.23
2018-06-20T05:41:08.698Z,20.26
2018-06-20T05:43:41.834Z,20.22
2018-06-20T05:44:31.712Z,20.27
2018-06-20T05:45:31.747Z,20.25
2018-06-20T05:46:31.665Z,20.32
2018-06-20T05:48:54.934Z,20.37
2018-06-20T05:49:54.717Z,20.37
2018-06-20T05:52:17.710Z,20.42
2018-06-20T05:53:25.810Z,20.50
2018-06-20T05:55:23.726Z,20.50
2018-06-20T05:56:12.087Z,20.48
2018-06-20T05:58:37.315Z,20.60
2018-06-20T05:59:36.877Z,20.55
2018-06-20T06:00:45.735Z,20.58
2018-06-20T06:02:32.462Z,20.53
2018-06-20T06:05:05.531Z,20.50
2018-06-20T06:05:55.275Z,20.61
2018-06-20T06:08:28.603Z,20.64
2018-06-20T06:09:18.245Z,20.67
2018-06-20T06:10:18.250Z,20.64
2018-06-20T06:11:18.401Z,20.70
2018-06-20T06:12:18.272Z,20.58
2018-06-20T06:13:18.261Z,20.67
2018-06-20T06:14:18.233Z,20.65
2018-06-20T06:15:18.232Z,20.67
2018-06-20T06:17:41.248Z,20.64
2018-06-20T06:20:14.343Z,20.65
2018-06-20T06:22:38.407Z,20.64
2018-06-20T06:23:27.303Z,20.68
2018-06-20T06:26:01.902Z,20.88
2018-06-20T06:28:13.846Z,20.83
2018-06-20T06:30:35.691Z,20.82
2018-06-20T06:31:35.348Z,20.89
2018-06-20T06:32:35.376Z,20.95
2018-06-20T06:34:58.389Z,20.90
2018-06-20T06:35:58.307Z,20.90
2018-06-20T06:36:58.402Z,21.01
2018-06-20T06:37:58.321Z,21.03
2018-06-20T06:38:58.301Z,21.19
2018-06-20T06:39:58.255Z,21.14
2018-06-20T06:40:58.244Z,21.19
2018-06-20T06:41:58.241Z,21.16
2018-06-20T06:42:58.208Z,21.25
2018-06-20T06:43:58.296Z,21.30
2018-06-20T06:44:58.195Z,21.30
2018-06-20T06:45:58.191Z,21.28
2018-06-20T06:46:58.192Z,21.25
2018-06-20T06:49:31.378Z,21.38
2018-06-20T06:50:21.412Z,21.44
2018-06-20T06:51:21.177Z,21.53
2018-06-20T06:52:21.144Z,21.53
2018-06-20T06:53:21.149Z,21.56
2018-06-20T06:55:54.411Z,21.58
2018-06-20T06:56:44.116Z,21.55
2018-06-20T06:57:44.314Z,21.55
2018-06-20T06:58:44.115Z,21.63
2018-06-20T06:59:44.073Z,21.66
2018-06-20T07:00:44.081Z,21.67
2018-06-20T07:01:44.061Z,21.71
2018-06-20T07:04:07.136Z,21.74
2018-06-20T07:06:30.120Z,21.88
2018-06-20T07:07:30.369Z,21.93
2018-06-20T07:08:30.081Z,21.98
2018-06-20T07:09:30.439Z,22.04
2018-06-20T07:10:38.929Z,22.06
2018-06-20T07:12:34.528Z,22.18
2018-06-20T07:13:24.602Z,22.21
2018-06-20T07:14:24.402Z,22.34
2018-06-20T07:15:24.405Z,22.36
2018-06-20T07:16:24.369Z,22.43
2018-06-20T07:17:24.389Z,22.48
2018-06-20T07:18:24.390Z,22.53
2018-06-20T07:19:24.351Z,22.55
2018-06-20T07:20:24.339Z,22.55
2018-06-20T07:21:24.361Z,22.55
2018-06-20T07:22:24.342Z,22.56
2018-06-20T07:23:24.330Z,22.53
2018-06-20T07:24:24.340Z,22.49
2018-06-20T07:25:24.300Z,22.62
2018-06-20T07:26:24.311Z,22.61
2018-06-20T07:27:24.271Z,22.59
2018-06-20T07:28:24.253Z,22.52
2018-06-20T07:29:24.294Z,22.40
2018-06-20T07:30:24.220Z,22.28
2018-06-20T07:31:24.230Z,22.37
2018-06-20T07:32:24.213Z,22.37
2018-06-20T07:33:24.209Z,22.53
2018-06-20T07:34:24.282Z,22.71
2018-06-20T07:35:24.222Z,22.66
2018-06-20T07:36:24.273Z,22.74
2018-06-20T07:37:24.152Z,22.83
2018-06-20T07:38:24.134Z,22.88
2018-06-20T07:39:24.138Z,23.04
2018-06-20T07:40:24.124Z,22.96
2018-06-20T07:41:24.144Z,22.81
2018-06-20T07:42:24.097Z,22.78
2018-06-20T07:43:24.106Z,22.66
2018-06-20T07:44:24.110Z,22.70
2018-06-20T07:45:24.058Z,22.74
2018-06-20T07:46:24.211Z,22.81
2018-06-20T07:47:24.066Z,22.88
2018-06-20T07:48:24.046Z,22.85
2018-06-20T07:49:24.017Z,22.86
2018-06-20T07:50:24.052Z,22.83
2018-06-20T07:51:24.031Z,22.88
2018-06-20T07:52:24.031Z,22.78
2018-06-20T07:53:24.004Z,22.67
2018-06-20T07:54:23.996Z,22.46
2018-06-20T07:55:23.982Z,22.36
2018-06-20T07:56:23.944Z,22.36
2018-06-20T07:57:23.933Z,22.37
2018-06-20T07:58:23.944Z,22.25
2018-06-20T07:59:23.939Z,22.06
2018-06-20T08:00:23.964Z,22.09
2018-06-20T08:01:23.928Z,22.07
2018-06-20T08:02:23.900Z,22.07
2018-06-20T08:03:23.872Z,22.07
2018-06-20T08:04:27.868Z,21.85
2018-06-20T08:05:23.903Z,21.74
2018-06-20T08:06:23.873Z,21.73
2018-06-20T08:07:23.824Z,21.65
2018-06-20T08:09:57.092Z,21.82
2018-06-20T08:12:13.431Z,22.12
2018-06-20T08:13:10.034Z,22.34
2018-06-20T08:14:09.913Z,22.56
2018-06-20T08:15:10.071Z,22.76
2018-06-20T08:16:09.886Z,22.95
2018-06-20T08:17:09.878Z,22.98
2018-06-20T08:18:09.911Z,23.18
2018-06-20T08:19:09.892Z,23.37
2018-06-20T08:20:09.959Z,23.56
2018-06-20T08:21:09.834Z,23.78
2018-06-20T08:22:09.815Z,23.97
2018-06-20T08:23:09.843Z,24.13
2018-06-20T08:24:09.811Z,24.23
2018-06-20T08:25:09.791Z,24.34
2018-06-20T08:26:09.809Z,24.58
2018-06-20T08:28:35.560Z,24.86
2018-06-20T08:29:34.913Z,24.89
2018-06-20T08:31:58.340Z,24.90
2018-06-20T08:32:58.517Z,24.91
2018-06-20T08:35:33.280Z,25.06
2018-06-20T08:36:21.318Z,25.19
2018-06-20T08:37:21.585Z,25.21
2018-06-20T08:38:21.334Z,25.08
2018-06-20T08:39:21.295Z,24.74
2018-06-20T08:40:21.344Z,24.43
2018-06-20T08:41:21.308Z,24.16
2018-06-20T08:42:21.369Z,24.00
2018-06-20T08:44:56.807Z,23.61
2018-06-20T08:45:47.535Z,23.64
2018-06-20T08:46:46.193Z,23.59
2018-06-20T08:49:22.285Z,23.56
2018-06-20T08:50:09.314Z,23.61
2018-06-20T08:52:46.351Z,23.82
2018-06-20T08:53:34.240Z,23.89
2018-06-20T08:54:34.067Z,23.98
2018-06-20T08:57:10.106Z,23.98
2018-06-20T08:57:59.121Z,24.16
2018-06-20T09:00:32.077Z,24.31
2018-06-20T09:01:22.792Z,24.40
2018-06-20T09:02:22.269Z,24.47
2018-06-20T09:03:22.392Z,24.74
2018-06-20T09:04:22.788Z,24.68
2018-06-20T09:05:22.218Z,24.78
2018-06-20T09:06:22.207Z,24.86
2018-06-20T09:07:22.190Z,24.99
2018-06-20T09:08:22.228Z,25.08
2018-06-20T09:09:22.192Z,25.22
2018-06-20T09:10:22.150Z,25.33
2018-06-20T09:11:22.153Z,25.34
2018-06-20T09:12:22.184Z,25.41
2018-06-20T09:13:22.117Z,25.56
2018-06-20T09:14:22.191Z,25.66
2018-06-20T09:15:22.143Z,25.83
2018-06-20T09:16:22.160Z,25.77
2018-06-20T09:17:22.090Z,25.83
2018-06-20T09:18:22.200Z,25.86
2018-06-20T09:19:22.399Z,25.81
2018-06-20T09:20:22.163Z,25.78
2018-06-20T09:21:23.121Z,25.88
2018-06-20T09:22:22.034Z,26.07
2018-06-20T09:23:22.056Z,26.16
2018-06-20T09:24:22.025Z,26.33
2018-06-20T09:25:22.008Z,26.30
2018-06-20T09:26:22.153Z,26.41
2018-06-20T09:27:24.840Z,26.38
2018-06-20T09:28:21.980Z,26.45
2018-06-20T09:29:21.996Z,26.56
2018-06-20T09:30:22.266Z,26.58
2018-06-20T09:31:21.988Z,26.45
2018-06-20T09:32:21.955Z,26.39
2018-06-20T09:33:21.939Z,26.45
2018-06-20T09:34:21.937Z,26.43
2018-06-20T09:35:24.839Z,26.45
2018-06-20T09:36:21.981Z,26.64
2018-06-20T09:37:22.833Z,26.64
2018-06-20T09:38:21.898Z,26.80
2018-06-20T09:39:21.906Z,27.01
2018-06-20T09:40:22.503Z,27.17
2018-06-20T09:41:21.870Z,27.34
2018-06-20T09:42:22.007Z,27.30
2018-06-20T09:43:21.883Z,27.31
2018-06-20T09:44:21.895Z,27.30
2018-06-20T09:45:21.863Z,27.25
2018-06-20T09:46:21.985Z,27.23
2018-06-20T09:47:21.819Z,27.45
2018-06-20T09:48:23.428Z,27.34
2018-06-20T09:49:22.466Z,27.27
2018-06-20T09:50:21.984Z,27.31
2018-06-20T09:51:21.802Z,27.12
2018-06-20T09:52:23.294Z,27.05
2018-06-20T09:53:21.795Z,26.95
2018-06-20T09:54:21.824Z,26.90
2018-06-20T09:55:21.794Z,26.82
2018-06-20T09:56:21.783Z,26.88
2018-06-20T09:57:21.727Z,26.79
2018-06-20T09:58:21.795Z,26.64
2018-06-20T09:59:21.820Z,26.48
2018-06-20T10:00:21.726Z,26.33
2018-06-20T10:01:21.743Z,26.07
2018-06-20T10:02:21.709Z,25.71
2018-06-20T10:03:21.727Z,25.52
2018-06-20T10:04:21.726Z,25.40
2018-06-20T10:05:21.698Z,25.31
2018-06-20T10:06:21.796Z,25.31
2018-06-20T10:07:21.729Z,25.12
2018-06-20T10:08:21.663Z,25.21
2018-06-20T10:09:21.644Z,25.06
2018-06-20T10:10:21.952Z,25.11
2018-06-20T10:11:21.646Z,25.16
2018-06-20T10:12:21.640Z,25.43
2018-06-20T10:13:21.662Z,25.52
2018-06-20T10:14:21.593Z,25.53
2018-06-20T10:15:21.615Z,25.61
2018-06-20T10:16:21.591Z,25.86
2018-06-20T10:17:21.566Z,26.04
2018-06-20T10:18:21.582Z,26.10
2018-06-20T10:19:21.610Z,26.27
2018-06-20T10:20:21.583Z,26.36
2018-06-20T10:21:21.706Z,26.49
2018-06-20T10:22:21.549Z,26.58
2018-06-20T10:23:21.555Z,26.58
2018-06-20T10:24:21.633Z,26.64
2018-06-20T10:26:54.914Z,26.78
2018-06-20T10:27:44.591Z,26.71
2018-06-20T10:28:44.581Z,26.53
2018-06-20T10:29:44.542Z,26.42
2018-06-20T10:30:44.518Z,26.38
2018-06-20T10:31:44.493Z,26.53
2018-06-20T10:32:44.481Z,26.70
2018-06-20T10:33:44.522Z,26.90
2018-06-20T10:34:44.524Z,27.13
2018-06-20T10:35:44.452Z,27.12
2018-06-20T10:36:44.496Z,27.01
2018-06-20T10:37:44.502Z,26.98
2018-06-20T10:38:44.470Z,26.97
2018-06-20T10:39:44.440Z,26.93
2018-06-20T10:40:44.558Z,26.64
2018-06-20T10:41:44.441Z,26.41
2018-06-20T10:42:44.420Z,26.49
2018-06-20T10:43:44.415Z,26.28
2018-06-20T10:44:44.396Z,26.39
2018-06-20T10:45:44.373Z,26.42
2018-06-20T10:46:44.398Z,26.43
2018-06-20T10:47:44.425Z,26.53
2018-06-20T10:48:44.348Z,26.53
2018-06-20T10:49:44.364Z,26.56
2018-06-20T10:50:44.326Z,26.52
2018-06-20T10:51:44.360Z,26.57
2018-06-20T10:52:44.352Z,26.79
2018-06-20T10:53:44.302Z,26.83
2018-06-20T10:54:44.319Z,26.82
2018-06-20T10:55:44.311Z,26.78
2018-06-20T10:56:44.308Z,26.85
2018-06-20T10:57:44.388Z,26.98
2018-06-20T10:58:44.282Z,27.07
2018-06-20T10:59:44.692Z,27.05
2018-06-20T11:00:44.499Z,27.08
2018-06-20T11:01:44.312Z,27.10
2018-06-20T11:02:44.263Z,27.13
2018-06-20T11:03:44.239Z,27.04
2018-06-20T11:04:44.243Z,27.20
2018-06-20T11:05:44.200Z,27.07
2018-06-20T11:06:44.247Z,27.12
2018-06-20T11:07:44.243Z,27.08
2018-06-20T11:08:44.209Z,27.10
2018-06-20T11:09:44.221Z,26.98
2018-06-20T11:10:44.163Z,26.79
2018-06-20T11:11:44.215Z,26.57
2018-06-20T11:12:44.148Z,26.23
2018-06-20T11:13:44.196Z,26.10
2018-06-20T11:14:44.171Z,26.20
2018-06-20T11:15:44.157Z,26.30
2018-06-20T11:16:44.176Z,26.26
2018-06-20T11:17:44.690Z,26.46
2018-06-20T11:18:44.087Z,26.60
2018-06-20T11:19:44.247Z,26.75
2018-06-20T11:20:44.546Z,27.03
2018-06-20T11:21:44.135Z,27.23
2018-06-20T11:22:44.085Z,27.44
2018-06-20T11:23:44.395Z,27.58
2018-06-20T11:24:44.051Z,27.75
2018-06-20T11:25:44.029Z,27.76
2018-06-20T11:26:44.032Z,27.64
2018-06-20T11:27:46.698Z,27.38
2018-06-20T11:28:44.021Z,27.20
2018-06-20T11:29:43.985Z,27.04
2018-06-20T11:30:44.030Z,26.83
2018-06-20T11:31:43.973Z,26.76
2018-06-20T11:32:43.998Z,26.79
2018-06-20T11:33:43.968Z,26.98
2018-06-20T11:34:43.968Z,27.15
2018-06-20T11:35:43.980Z,27.26
2018-06-20T11:36:43.963Z,27.41
2018-06-20T11:37:43.927Z,27.47
2018-06-20T11:38:43.939Z,27.73
2018-06-20T11:39:43.920Z,27.95
2018-06-20T11:40:43.898Z,28.10
2018-06-20T11:41:43.887Z,28.20
2018-06-20T11:42:43.910Z,28.24
2018-06-20T11:43:43.874Z,28.17
2018-06-20T11:44:43.904Z,28.30
2018-06-20T11:45:43.891Z,28.47
2018-06-20T11:46:43.894Z,28.56
2018-06-20T11:47:43.844Z,28.65
2018-06-20T11:48:43.846Z,28.57
2018-06-20T11:49:43.887Z,28.22
2018-06-20T11:50:43.847Z,28.06
2018-06-20T11:51:43.832Z,28.01
2018-06-20T11:52:43.813Z,27.85
2018-06-20T11:53:43.825Z,27.88
2018-06-20T11:54:43.812Z,27.87
2018-06-20T11:55:43.805Z,27.87
2018-06-20T11:56:43.792Z,27.87
2018-06-20T11:57:43.780Z,27.91
2018-06-20T11:58:43.792Z,27.70
2018-06-20T11:59:43.772Z,27.87
2018-06-20T12:00:43.736Z,27.97
2018-06-20T12:01:43.739Z,28.06
2018-06-20T12:02:43.725Z,27.75
2018-06-20T12:03:43.728Z,27.69
2018-06-20T12:04:43.703Z,27.72
2018-06-20T12:05:43.714Z,27.75
2018-06-20T12:06:43.700Z,27.70
2018-06-20T12:07:43.708Z,27.70
2018-06-20T12:08:43.695Z,27.69
2018-06-20T12:09:43.675Z,27.60
2018-06-20T12:10:43.683Z,27.64
2018-06-20T12:11:43.651Z,27.69
2018-06-20T12:12:43.658Z,27.87
2018-06-20T12:13:43.654Z,27.98
2018-06-20T12:14:43.642Z,27.90
2018-06-20T12:15:43.650Z,27.72
2018-06-20T12:16:43.635Z,27.70
2018-06-20T12:17:43.635Z,27.68
2018-06-20T12:18:43.620Z,27.70
2018-06-20T12:19:43.612Z,27.70
2018-06-20T12:20:43.583Z,27.58
2018-06-20T12:21:43.723Z,27.68
2018-06-20T12:22:43.567Z,27.64
2018-06-20T12:23:43.575Z,27.87
2018-06-20T12:24:43.614Z,28.09
2018-06-20T12:25:43.554Z,28.43
2018-06-20T12:26:43.550Z,28.68
2018-06-20T12:27:43.692Z,28.72
2018-06-20T12:28:43.552Z,28.61
2018-06-20T12:29:43.525Z,28.53
2018-06-20T12:30:43.497Z,28.31
2018-06-20T12:31:43.578Z,28.46
2018-06-20T12:32:43.496Z,28.61
2018-06-20T12:33:43.523Z,28.91
2018-06-20T12:34:43.495Z,29.17
2018-06-20T12:35:43.503Z,29.17
2018-06-20T12:36:44.208Z,29.07
2018-06-20T12:37:43.493Z,29.21
2018-06-20T12:38:43.452Z,29.24
2018-06-20T12:39:43.437Z,29.41
2018-06-20T12:40:43.632Z,29.59
2018-06-20T12:41:43.449Z,29.40
2018-06-20T12:42:43.438Z,29.18
2018-06-20T12:43:43.422Z,28.98
2018-06-20T12:44:43.437Z,29.13
2018-06-20T12:45:43.404Z,29.25
2018-06-20T12:46:43.421Z,29.19
2018-06-20T12:47:43.466Z,29.36
2018-06-20T12:48:43.399Z,29.41
2018-06-20T12:49:43.427Z,29.49
2018-06-20T12:50:43.348Z,29.13
2018-06-20T12:51:43.389Z,29.02
2018-06-20T12:52:43.353Z,29.34
2018-06-20T12:53:43.366Z,29.62
2018-06-20T12:54:43.339Z,29.66
2018-06-20T12:55:43.319Z,29.63
2018-06-20T12:56:43.362Z,29.91
2018-06-20T12:57:43.367Z,30.39
2018-06-20T12:58:43.313Z,30.73
2018-06-20T12:59:43.324Z,30.93
2018-06-20T13:00:43.352Z,31.02
2018-06-20T13:01:43.301Z,30.89
2018-06-20T13:02:43.295Z,31.15
2018-06-20T13:03:43.333Z,31.52
2018-06-20T13:04:43.332Z,31.82
2018-06-20T13:05:44.626Z,32.21
2018-06-20T13:06:43.494Z,32.63
2018-06-20T13:07:43.421Z,32.60
2018-06-20T13:08:43.713Z,32.58
2018-06-20T13:09:43.589Z,32.50
2018-06-20T13:10:43.415Z,32.38
2018-06-20T13:11:43.272Z,32.04
2018-06-20T13:12:43.498Z,31.97
2018-06-20T13:13:43.270Z,31.74
2018-06-20T13:14:43.287Z,31.76
2018-06-20T13:15:43.291Z,32.11
2018-06-20T13:16:43.315Z,32.38
2018-06-20T13:19:05.431Z,32.60
2018-06-20T13:20:05.429Z,32.39
2018-06-20T13:22:00.798Z,31.95
2018-06-20T13:22:59.759Z,31.98
2018-06-20T13:23:59.771Z,31.98
2018-06-20T13:24:59.802Z,32.31
2018-06-20T13:25:59.874Z,32.45
2018-06-20T13:26:59.780Z,32.64
2018-06-20T13:27:59.973Z,32.55
2018-06-20T13:28:59.829Z,32.63
2018-06-20T13:29:59.773Z,32.54
2018-06-20T13:30:59.827Z,32.65
2018-06-20T13:31:59.783Z,33.13
2018-06-20T13:32:59.781Z,33.30
2018-06-20T13:33:59.825Z,33.52
2018-06-20T13:34:59.791Z,33.37
2018-06-20T13:35:59.799Z,33.41
2018-06-20T13:36:59.833Z,33.45
2018-06-20T13:37:59.804Z,33.36
2018-06-20T13:38:59.843Z,33.51
2018-06-20T13:39:59.785Z,33.13
2018-06-20T13:40:59.804Z,33.19
2018-06-20T13:41:59.792Z,33.37
2018-06-20T13:42:59.980Z,33.48
2018-06-20T13:43:59.983Z,33.60
2018-06-20T13:45:00.348Z,33.49
2018-06-20T13:45:59.862Z,33.57
2018-06-20T13:47:00.017Z,33.39
2018-06-20T13:48:00.047Z,33.01
2018-06-20T13:49:00.013Z,32.33
2018-06-20T13:49:59.841Z,32.45
2018-06-20T13:50:59.861Z,32.83
2018-06-20T13:51:59.845Z,33.04
2018-06-20T13:52:59.834Z,33.47
2018-06-20T13:53:59.859Z,33.82
2018-06-20T13:54:59.868Z,34.18
2018-06-20T13:55:59.849Z,34.13
2018-06-20T13:56:59.878Z,34.15
2018-06-20T13:57:59.878Z,33.79
2018-06-20T13:58:59.868Z,33.24
2018-06-20T13:59:59.861Z,33.03
2018-06-20T14:00:59.904Z,32.83
2018-06-20T14:01:59.917Z,32.65
2018-06-20T14:02:59.929Z,32.65
2018-06-20T14:03:59.879Z,33.27
2018-06-20T14:04:59.905Z,33.76
2018-06-20T14:05:59.901Z,34.19
2018-06-20T14:06:59.895Z,34.48
2018-06-20T14:07:59.896Z,34.87
2018-06-20T14:08:59.897Z,34.83
2018-06-20T14:09:59.904Z,34.57
2018-06-20T14:10:59.923Z,33.54
2018-06-20T14:11:59.912Z,33.07
2018-06-20T14:12:59.940Z,32.42
2018-06-20T14:14:00.035Z,32.08
2018-06-20T14:14:59.919Z,31.95
2018-06-20T14:15:59.939Z,31.48
2018-06-20T14:16:59.932Z,31.97
2018-06-20T14:17:59.945Z,32.45
2018-06-20T14:18:59.924Z,32.55
2018-06-20T14:19:59.916Z,32.65
2018-06-20T14:20:59.935Z,32.61
2018-06-20T14:21:59.920Z,32.31
2018-06-20T14:22:59.948Z,31.94
2018-06-20T14:23:59.972Z,31.45
2018-06-20T14:24:59.924Z,30.73
2018-06-20T14:25:59.943Z,30.39
2018-06-20T14:26:59.930Z,30.03
2018-06-20T14:27:59.985Z,30.03
2018-06-20T14:28:59.930Z,30.07
2018-06-20T14:29:59.928Z,30.83
2018-06-20T14:30:59.923Z,31.57
2018-06-20T14:31:59.948Z,32.14
2018-06-20T14:34:23.135Z,32.97
2018-06-20T14:35:23.052Z,32.38
2018-06-20T14:36:23.063Z,31.75
2018-06-20T14:37:23.072Z,31.46
2018-06-20T14:38:22.977Z,31.60
2018-06-20T14:39:22.976Z,31.82
2018-06-20T14:40:22.988Z,32.08
2018-06-20T14:41:23.029Z,32.11
2018-06-20T14:42:23.017Z,31.61
2018-06-20T14:43:22.974Z,31.52
2018-06-20T14:44:22.970Z,31.05
2018-06-20T14:46:46.164Z,30.53
2018-06-20T14:47:46.122Z,30.02
2018-06-20T14:50:09.543Z,29.68
2018-06-20T14:51:09.179Z,29.91
2018-06-20T14:52:09.127Z,30.68
2018-06-20T14:53:09.164Z,31.38
2018-06-20T14:54:09.164Z,31.89
2018-06-20T14:55:09.243Z,32.48
2018-06-20T14:56:09.146Z,32.88
2018-06-20T14:57:09.171Z,33.14
2018-06-20T14:58:09.187Z,33.45
2018-06-20T14:59:09.148Z,33.12
2018-06-20T15:00:09.149Z,32.33
2018-06-20T15:01:09.708Z,32.70
2018-06-20T15:02:09.494Z,32.54
2018-06-20T15:03:09.176Z,31.67
2018-06-20T15:04:09.147Z,31.07
2018-06-20T15:05:09.154Z,30.93
2018-06-20T15:07:42.284Z,30.58
2018-06-20T15:08:32.465Z,30.39
2018-06-20T15:09:32.200Z,30.14
2018-06-20T15:12:05.363Z,30.92
2018-06-20T15:12:55.259Z,31.86
2018-06-20T15:13:55.295Z,32.69
2018-06-20T15:15:04.137Z,33.30
2018-06-20T15:15:55.424Z,33.88
2018-06-20T15:16:55.277Z,33.82
2018-06-20T15:17:55.241Z,32.68
2018-06-20T15:18:55.241Z,32.05
2018-06-20T15:19:55.223Z,32.53
2018-06-20T15:20:55.291Z,32.99
2018-06-20T15:21:55.248Z,33.44
2018-06-20T15:22:55.258Z,33.24
2018-06-20T15:23:55.274Z,33.30
2018-06-20T15:24:55.241Z,33.26
2018-06-20T15:25:55.229Z,33.47
2018-06-20T15:26:55.211Z,33.57
2018-06-20T15:27:55.293Z,33.57
2018-06-20T15:28:55.250Z,33.69
2018-06-20T15:29:55.213Z,33.71
2018-06-20T15:30:55.251Z,34.04
2018-06-20T15:31:55.240Z,34.07
2018-06-20T15:32:55.287Z,33.92
2018-06-20T15:33:55.257Z,33.19
2018-06-20T15:34:55.219Z,32.32
2018-06-20T15:35:55.244Z,31.81
2018-06-20T15:36:55.228Z,31.67
2018-06-20T15:37:55.262Z,32.06
2018-06-20T15:38:55.219Z,32.68
2018-06-20T15:39:55.208Z,32.64
2018-06-20T15:40:55.268Z,33.03
2018-06-20T15:41:55.237Z,33.76
2018-06-20T15:42:55.247Z,34.47
2018-06-20T15:43:55.233Z,34.40
2018-06-20T15:44:55.242Z,34.52
2018-06-20T15:45:55.279Z,34.48
2018-06-20T15:46:55.219Z,33.78
2018-06-20T15:47:55.229Z,32.90
2018-06-20T15:48:55.216Z,32.19
2018-06-20T15:49:55.251Z,31.66
2018-06-20T15:50:55.220Z,31.74
2018-06-20T15:51:55.240Z,31.86
2018-06-20T15:52:55.294Z,31.82
2018-06-20T15:53:55.352Z,32.27
2018-06-20T15:54:55.236Z,31.99
2018-06-20T15:55:55.228Z,32.70
2018-06-20T15:56:55.277Z,33.47
2018-06-20T15:57:55.232Z,34.01
2018-06-20T15:58:55.226Z,34.42
2018-06-20T15:59:55.220Z,34.76
2018-06-20T16:00:55.191Z,34.95
2018-06-20T16:01:55.215Z,34.67
2018-06-20T16:02:55.220Z,34.62
2018-06-20T16:03:55.205Z,34.56
2018-06-20T16:04:55.197Z,34.72
2018-06-20T16:05:55.255Z,34.80
2018-06-20T16:06:55.188Z,34.87
2018-06-20T16:07:55.191Z,34.73
2018-06-20T16:08:55.200Z,34.59
2018-06-20T16:09:55.229Z,34.37
2018-06-20T16:10:55.193Z,34.52
2018-06-20T16:11:55.213Z,34.20
2018-06-20T16:12:55.227Z,33.92
2018-06-20T16:13:55.206Z,34.22
2018-06-20T16:14:55.190Z,34.45
2018-06-20T16:15:55.219Z,34.52
2018-06-20T16:16:55.250Z,34.72
2018-06-20T16:17:55.213Z,34.22
2018-06-20T16:18:55.194Z,33.79
2018-06-20T16:19:55.270Z,32.99
2018-06-20T16:20:55.242Z,33.54
2018-06-20T16:21:55.330Z,33.47
2018-06-20T16:22:55.217Z,33.17
2018-06-20T16:23:55.239Z,33.03
2018-06-20T16:24:55.190Z,32.80
2018-06-20T16:25:55.190Z,33.17
2018-06-20T16:26:55.213Z,33.73